sensor_id;sensor_type;location;lat;lon;timestamp;pressure;altitude;pressure_sealevel;temperature;humidity
22753;BME280;11543;43.144;24.684;2024-02-23T00:01:15;98517.75;;;9.76;58.43
22753;BME280;11543;43.144;24.684;2024-02-23T00:03:40;98511.09;;;9.80;58.67
22753;BME280;11543;43.144;24.684;2024-02-23T00:06:06;98504.72;;;9.81;58.14
22753;BME280;11543;43.144;24.684;2024-02-23T00:08:31;98499.38;;;9.81;57.83
22753;BME280;11543;43.144;24.684;2024-02-23T00:10:57;98507.44;;;9.89;57.46
22753;BME280;11543;43.144;24.684;2024-02-23T00:13:22;98499.22;;;9.82;56.90
22753;BME280;11543;43.144;24.684;2024-02-23T00:15:48;98499.56;;;9.87;57.29
22753;BME280;11543;43.144;24.684;2024-02-23T00:18:13;98494.41;;;9.94;57.00
22753;BME280;11543;43.144;24.684;2024-02-23T00:20:41;98494.09;;;9.97;56.90
22753;BME280;11543;43.144;24.684;2024-02-23T00:23:06;98494.09;;;9.97;57.18
22753;BME280;11543;43.144;24.684;2024-02-23T00:25:32;98492.91;;;9.92;57.26
22753;BME280;11543;43.144;24.684;2024-02-23T00:27:57;98481.13;;;9.84;57.64
22753;BME280;11543;43.144;24.684;2024-02-23T00:30:23;98484.34;;;9.88;58.05
22753;BME280;11543;43.144;24.684;2024-02-23T00:32:48;98481.69;;;9.96;58.42
22753;BME280;11543;43.144;24.684;2024-02-23T00:35:14;98473.66;;;9.96;58.07
22753;BME280;11543;43.144;24.684;2024-02-23T00:37:40;98482.41;;;10.06;57.69
22753;BME280;11543;43.144;24.684;2024-02-23T00:40:06;98491.13;;;10.08;57.66
22753;BME280;11543;43.144;24.684;2024-02-23T00:42:31;98480.09;;;10.11;57.61
22753;BME280;11543;43.144;24.684;2024-02-23T00:44:57;98491.00;;;10.18;57.22
22753;BME280;11543;43.144;24.684;2024-02-23T00:47:23;98488.50;;;10.16;57.39
22753;BME280;11543;43.144;24.684;2024-02-23T00:49:48;98476.59;;;10.19;57.82
22753;BME280;11543;43.144;24.684;2024-02-23T00:52:14;98495.44;;;10.27;57.56
22753;BME280;11543;43.144;24.684;2024-02-23T00:54:40;98486.03;;;10.23;57.57
22753;BME280;11543;43.144;24.684;2024-02-23T00:57:05;98491.91;;;10.27;57.10
22753;BME280;11543;43.144;24.684;2024-02-23T00:59:31;98463.69;;;10.14;56.49
22753;BME280;11543;43.144;24.684;2024-02-23T01:01:57;98469.88;;;10.15;56.67
22753;BME280;11543;43.144;24.684;2024-02-23T01:04:22;98467.38;;;10.13;56.86
22753;BME280;11543;43.144;24.684;2024-02-23T01:06:48;98471.22;;;10.11;56.96
22753;BME280;11543;43.144;24.684;2024-02-23T01:09:14;98479.75;;;10.14;57.06
22753;BME280;11543;43.144;24.684;2024-02-23T01:11:41;98476.09;;;10.15;57.66
22753;BME280;11543;43.144;24.684;2024-02-23T01:14:07;98478.09;;;10.13;57.65
22753;BME280;11543;43.144;24.684;2024-02-23T01:16:32;98472.53;;;10.07;57.92
22753;BME280;11543;43.144;24.684;2024-02-23T01:18:58;98482.13;;;10.17;58.10
22753;BME280;11543;43.144;24.684;2024-02-23T01:21:23;98463.13;;;10.03;58.06
22753;BME280;11543;43.144;24.684;2024-02-23T01:23:49;98460.63;;;10.01;58.50
22753;BME280;11543;43.144;24.684;2024-02-23T01:26:14;98468.66;;;10.01;58.58
22753;BME280;11543;43.144;24.684;2024-02-23T01:28:40;98457.53;;;9.88;58.97
22753;BME280;11543;43.144;24.684;2024-02-23T01:31:08;98451.03;;;9.90;59.15
22753;BME280;11543;43.144;24.684;2024-02-23T01:33:36;98456.56;;;9.97;58.94
22753;BME280;11543;43.144;24.684;2024-02-23T01:36:06;98450.53;;;9.95;58.49
22753;BME280;11543;43.144;24.684;2024-02-23T01:38:33;98454.91;;;9.96;58.26
22753;BME280;11543;43.144;24.684;2024-02-23T01:40:59;98455.91;;;9.95;58.49
22753;BME280;11543;43.144;24.684;2024-02-23T01:43:25;98460.09;;;9.98;58.31
22753;BME280;11543;43.144;24.684;2024-02-23T01:45:51;98450.84;;;9.92;58.13
22753;BME280;11543;43.144;24.684;2024-02-23T01:48:17;98440.75;;;9.78;57.94
22753;BME280;11543;43.144;24.684;2024-02-23T01:50:43;98459.81;;;9.75;58.18
22753;BME280;11543;43.144;24.684;2024-02-23T01:53:10;98445.91;;;9.71;58.63
22753;BME280;11543;43.144;24.684;2024-02-23T01:55:43;98443.66;;;9.58;58.23
22753;BME280;11543;43.144;24.684;2024-02-23T01:58:11;98455.44;;;9.48;57.52
22753;BME280;11543;43.144;24.684;2024-02-23T02:00:36;98447.69;;;9.37;57.94
22753;BME280;11543;43.144;24.684;2024-02-23T02:03:02;98458.28;;;9.46;58.21
22753;BME280;11543;43.144;24.684;2024-02-23T02:05:28;98447.88;;;9.43;58.35
22753;BME280;11543;43.144;24.684;2024-02-23T02:07:55;98456.66;;;9.53;58.31
22753;BME280;11543;43.144;24.684;2024-02-23T02:10:24;98450.94;;;9.48;58.24
22753;BME280;11543;43.144;24.684;2024-02-23T02:12:50;98455.69;;;9.54;58.11
22753;BME280;11543;43.144;24.684;2024-02-23T02:15:15;98449.25;;;9.47;57.73
22753;BME280;11543;43.144;24.684;2024-02-23T02:17:41;98445.72;;;9.47;57.47
22753;BME280;11543;43.144;24.684;2024-02-23T02:20:11;98463.25;;;9.59;57.46
22753;BME280;11543;43.144;24.684;2024-02-23T02:22:37;98441.22;;;9.47;57.20
22753;BME280;11543;43.144;24.684;2024-02-23T02:25:02;98451.84;;;9.57;56.80
22753;BME280;11543;43.144;24.684;2024-02-23T02:27:28;98465.44;;;9.64;56.83
22753;BME280;11543;43.144;24.684;2024-02-23T02:29:54;98473.47;;;9.64;56.86
22753;BME280;11543;43.144;24.684;2024-02-23T02:32:19;98459.56;;;9.60;57.09
22753;BME280;11543;43.144;24.684;2024-02-23T02:34:45;98447.94;;;9.51;56.83
22753;BME280;11543;43.144;24.684;2024-02-23T02:37:10;98463.56;;;9.56;57.23
22753;BME280;11543;43.144;24.684;2024-02-23T02:39:36;98450.94;;;9.48;57.67
22753;BME280;11543;43.144;24.684;2024-02-23T02:42:01;98455.44;;;9.48;57.88
22753;BME280;11543;43.144;24.684;2024-02-23T02:44:27;98452.88;;;9.38;58.27
22753;BME280;11543;43.144;24.684;2024-02-23T02:46:56;98463.22;;;9.33;58.51
22753;BME280;11543;43.144;24.684;2024-02-23T02:49:22;98463.59;;;9.38;58.76
22753;BME280;11543;43.144;24.684;2024-02-23T02:51:47;98455.56;;;9.38;58.84
22753;BME280;11543;43.144;24.684;2024-02-23T02:54:13;98448.16;;;9.32;58.42
22753;BME280;11543;43.144;24.684;2024-02-23T02:56:45;98458.00;;;9.32;58.53
22753;BME280;11543;43.144;24.684;2024-02-23T02:59:12;98449.03;;;9.15;59.02
22753;BME280;11543;43.144;24.684;2024-02-23T03:01:37;98474.53;;;9.27;59.54
22753;BME280;11543;43.144;24.684;2024-02-23T03:04:03;98464.91;;;9.34;59.81
22753;BME280;11543;43.144;24.684;2024-02-23T03:06:28;98448.47;;;9.29;59.76
22753;BME280;11543;43.144;24.684;2024-02-23T03:08:54;98452.50;;;9.33;59.82
22753;BME280;11543;43.144;24.684;2024-02-23T03:11:19;98462.59;;;9.39;59.65
22753;BME280;11543;43.144;24.684;2024-02-23T03:13:45;98457.19;;;9.31;59.58
22753;BME280;11543;43.144;24.684;2024-02-23T03:16:17;98463.84;;;9.27;58.60
22753;BME280;11543;43.144;24.684;2024-02-23T03:18:44;98453.00;;;9.11;58.22
22753;BME280;11543;43.144;24.684;2024-02-23T03:21:10;98466.53;;;9.09;58.51
22753;BME280;11543;43.144;24.684;2024-02-23T03:23:36;98453.47;;;9.06;59.28
22753;BME280;11543;43.144;24.684;2024-02-23T03:26:02;98461.41;;;9.16;58.93
22753;BME280;11543;43.144;24.684;2024-02-23T03:28:28;98452.56;;;8.98;59.15
22753;BME280;11543;43.144;24.684;2024-02-23T03:30:53;98460.06;;;8.76;58.84
22753;BME280;11543;43.144;24.684;2024-02-23T03:33:19;98464.63;;;8.66;59.24
22753;BME280;11543;43.144;24.684;2024-02-23T03:35:44;98463.78;;;8.66;60.32
22753;BME280;11543;43.144;24.684;2024-02-23T03:38:10;98458.69;;;8.72;60.59
22753;BME280;11543;43.144;24.684;2024-02-23T03:40:36;98465.13;;;8.79;60.39
22753;BME280;11543;43.144;24.684;2024-02-23T03:43:02;98458.41;;;8.75;60.51
22753;BME280;11543;43.144;24.684;2024-02-23T03:45:27;98459.00;;;8.69;60.61
22753;BME280;11543;43.144;24.684;2024-02-23T03:47:53;98471.63;;;8.77;61.10
22753;BME280;11543;43.144;24.684;2024-02-23T03:50:18;98470.81;;;8.67;61.14
22753;BME280;11543;43.144;24.684;2024-02-23T03:52:44;98462.19;;;8.55;61.52
22753;BME280;11543;43.144;24.684;2024-02-23T03:55:10;98475.94;;;8.60;61.78
22753;BME280;11543;43.144;24.684;2024-02-23T03:57:35;98465.53;;;8.57;61.88
22753;BME280;11543;43.144;24.684;2024-02-23T04:00:01;98473.38;;;8.68;62.09
22753;BME280;11543;43.144;24.684;2024-02-23T04:02:27;98465.47;;;8.67;61.48
22753;BME280;11543;43.144;24.684;2024-02-23T04:04:53;98472.75;;;8.74;61.31
22753;BME280;11543;43.144;24.684;2024-02-23T04:07:19;98482.84;;;8.80;61.17
22753;BME280;11543;43.144;24.684;2024-02-23T04:09:45;98469.69;;;8.69;60.77
22753;BME280;11543;43.144;24.684;2024-02-23T04:12:10;98465.25;;;8.60;60.53
22753;BME280;11543;43.144;24.684;2024-02-23T04:14:36;98482.66;;;8.64;60.66
22753;BME280;11543;43.144;24.684;2024-02-23T04:17:04;98488.28;;;8.71;61.14
22753;BME280;11543;43.144;24.684;2024-02-23T04:19:30;98482.09;;;8.70;61.34
22753;BME280;11543;43.144;24.684;2024-02-23T04:21:56;98486.81;;;8.76;61.25
22753;BME280;11543;43.144;24.684;2024-02-23T04:24:21;98484.00;;;8.78;61.04
22753;BME280;11543;43.144;24.684;2024-02-23T04:26:47;98477.88;;;8.68;60.71
22753;BME280;11543;43.144;24.684;2024-02-23T04:29:12;98466.91;;;8.61;60.44
22753;BME280;11543;43.144;24.684;2024-02-23T04:31:38;98469.97;;;8.66;60.21
22753;BME280;11543;43.144;24.684;2024-02-23T04:34:03;98470.97;;;8.65;59.96
22753;BME280;11543;43.144;24.684;2024-02-23T04:36:29;98476.94;;;8.59;60.19
22753;BME280;11543;43.144;24.684;2024-02-23T04:38:54;98467.53;;;8.55;60.45
22753;BME280;11543;43.144;24.684;2024-02-23T04:41:20;98486.94;;;8.57;60.74
22753;BME280;11543;43.144;24.684;2024-02-23T04:43:50;98468.66;;;8.35;61.22
22753;BME280;11543;43.144;24.684;2024-02-23T04:46:15;98460.97;;;8.22;62.12
22753;BME280;11543;43.144;24.684;2024-02-23T04:48:41;98467.00;;;8.24;62.11
22753;BME280;11543;43.144;24.684;2024-02-23T04:51:07;98467.22;;;8.30;61.95
22753;BME280;11543;43.144;24.684;2024-02-23T04:53:37;98461.78;;;8.22;61.55
22753;BME280;11543;43.144;24.684;2024-02-23T04:56:04;98464.97;;;8.08;61.36
22753;BME280;11543;43.144;24.684;2024-02-23T04:58:29;98474.81;;;8.08;61.41
22753;BME280;11543;43.144;24.684;2024-02-23T05:00:55;98470.41;;;7.89;61.35
22753;BME280;11543;43.144;24.684;2024-02-23T05:03:20;98487.03;;;7.83;62.04
22753;BME280;11543;43.144;24.684;2024-02-23T05:05:46;98466.28;;;7.57;62.17
22753;BME280;11543;43.144;24.684;2024-02-23T05:08:11;98484.47;;;7.34;61.50
22753;BME280;11543;43.144;24.684;2024-02-23T05:10:37;98499.25;;;7.19;62.08
22753;BME280;11543;43.144;24.684;2024-02-23T05:13:02;98478.88;;;6.89;62.50
22753;BME280;11543;43.144;24.684;2024-02-23T05:15:28;98491.41;;;6.98;63.45
22753;BME280;11543;43.144;24.684;2024-02-23T05:17:53;98491.66;;;7.15;65.04
22753;BME280;11543;43.144;24.684;2024-02-23T05:20:19;98491.91;;;7.31;64.39
22753;BME280;11543;43.144;24.684;2024-02-23T05:22:44;98475.91;;;7.31;64.78
22753;BME280;11543;43.144;24.684;2024-02-23T05:25:10;98499.94;;;7.31;64.49
22753;BME280;11543;43.144;24.684;2024-02-23T05:27:35;98497.69;;;7.17;64.40
22753;BME280;11543;43.144;24.684;2024-02-23T05:30:01;98497.13;;;7.23;65.48
22753;BME280;11543;43.144;24.684;2024-02-23T05:32:26;98514.09;;;7.41;65.04
22753;BME280;11543;43.144;24.684;2024-02-23T05:34:52;98501.72;;;7.40;64.51
22753;BME280;11543;43.144;24.684;2024-02-23T05:37:19;98516.59;;;7.52;64.26
22753;BME280;11543;43.144;24.684;2024-02-23T05:39:44;98526.97;;;7.65;63.98
22753;BME280;11543;43.144;24.684;2024-02-23T05:42:12;98519.34;;;7.70;64.14
22753;BME280;11543;43.144;24.684;2024-02-23T05:44:38;98517.09;;;7.75;64.07
22753;BME280;11543;43.144;24.684;2024-02-23T05:47:04;98520.06;;;7.82;64.10
22753;BME280;11543;43.144;24.684;2024-02-23T05:49:30;98508.66;;;7.80;63.59
22753;BME280;11543;43.144;24.684;2024-02-23T05:51:55;98512.31;;;7.79;63.76
22753;BME280;11543;43.144;24.684;2024-02-23T05:54:21;98515.81;;;7.89;63.32
22753;BME280;11543;43.144;24.684;2024-02-23T05:56:46;98511.47;;;7.88;63.01
22753;BME280;11543;43.144;24.684;2024-02-23T05:59:12;98516.22;;;7.94;62.85
22753;BME280;11543;43.144;24.684;2024-02-23T06:01:39;98512.41;;;7.96;62.54
22753;BME280;11543;43.144;24.684;2024-02-23T06:04:04;98512.25;;;7.98;62.03
22753;BME280;11543;43.144;24.684;2024-02-23T06:06:30;98516.22;;;7.94;62.71
22753;BME280;11543;43.144;24.684;2024-02-23T06:08:56;98520.16;;;7.90;62.97
22753;BME280;11543;43.144;24.684;2024-02-23T06:11:22;98524.25;;;7.75;63.20
22753;BME280;11543;43.144;24.684;2024-02-23T06:13:49;98519.38;;;7.60;63.54
22753;BME280;11543;43.144;24.684;2024-02-23T06:16:14;98527.28;;;7.52;64.17
22753;BME280;11543;43.144;24.684;2024-02-23T06:18:40;98528.66;;;7.56;65.01
22753;BME280;11543;43.144;24.684;2024-02-23T06:21:16;98533.75;;;7.40;64.62
22753;BME280;11543;43.144;24.684;2024-02-23T06:23:43;98537.69;;;7.36;64.16
22753;BME280;11543;43.144;24.684;2024-02-23T06:26:10;98539.81;;;7.23;64.53
22753;BME280;11543;43.144;24.684;2024-02-23T06:28:37;98530.97;;;7.13;64.73
22753;BME280;11543;43.144;24.684;2024-02-23T06:31:07;98533.06;;;7.19;65.87
22753;BME280;11543;43.144;24.684;2024-02-23T06:33:32;98529.84;;;7.25;65.28
22753;BME280;11543;43.144;24.684;2024-02-23T06:35:58;98536.84;;;7.45;65.94
22753;BME280;11543;43.144;24.684;2024-02-23T06:38:23;98522.78;;;7.53;66.10
22753;BME280;11543;43.144;24.684;2024-02-23T06:40:49;98524.69;;;7.70;66.07
22753;BME280;11543;43.144;24.684;2024-02-23T06:43:15;98532.13;;;7.86;66.12
22753;BME280;11543;43.144;24.684;2024-02-23T06:45:41;98540.97;;;7.77;65.55
22753;BME280;11543;43.144;24.684;2024-02-23T06:48:07;98529.16;;;7.79;66.04
22753;BME280;11543;43.144;24.684;2024-02-23T06:50:32;98542.63;;;7.97;66.30
22753;BME280;11543;43.144;24.684;2024-02-23T06:52:58;98537.56;;;8.04;66.50
22753;BME280;11543;43.144;24.684;2024-02-23T06:55:23;98537.22;;;8.16;66.36
22753;BME280;11543;43.144;24.684;2024-02-23T06:57:49;98532.97;;;8.23;66.56
22753;BME280;11543;43.144;24.684;2024-02-23T07:00:15;98525.88;;;8.42;66.54
22753;BME280;11543;43.144;24.684;2024-02-23T07:02:41;98528.25;;;8.72;65.87
22753;BME280;11543;43.144;24.684;2024-02-23T07:05:07;98514.94;;;8.80;65.64
22753;BME280;11543;43.144;24.684;2024-02-23T07:07:34;98516.25;;;8.94;65.32
22753;BME280;11543;43.144;24.684;2024-02-23T07:10:00;98508.81;;;9.06;64.30
22753;BME280;11543;43.144;24.684;2024-02-23T07:12:25;98533.81;;;9.14;64.41
22753;BME280;11543;43.144;24.684;2024-02-23T07:14:55;98529.09;;;9.08;64.22
22753;BME280;11543;43.144;24.684;2024-02-23T07:17:21;98518.47;;;8.99;64.05
22753;BME280;11543;43.144;24.684;2024-02-23T07:19:46;98517.84;;;9.05;64.38
22753;BME280;11543;43.144;24.684;2024-02-23T07:22:12;98526.50;;;9.16;64.75
22753;BME280;11543;43.144;24.684;2024-02-23T07:24:43;98513.88;;;9.09;64.52
22753;BME280;11543;43.144;24.684;2024-02-23T07:27:09;98522.03;;;9.25;64.85
22753;BME280;11543;43.144;24.684;2024-02-23T07:29:35;98513.94;;;9.17;64.70
22753;BME280;11543;43.144;24.684;2024-02-23T07:32:01;98507.22;;;9.13;65.26
22753;BME280;11543;43.144;24.684;2024-02-23T07:34:26;98514.84;;;9.25;65.44
22753;BME280;11543;43.144;24.684;2024-02-23T07:36:52;98525.47;;;9.35;65.89
22753;BME280;11543;43.144;24.684;2024-02-23T07:39:18;98512.03;;;9.27;65.80
22753;BME280;11543;43.144;24.684;2024-02-23T07:41:44;98530.03;;;9.43;65.84
22753;BME280;11543;43.144;24.684;2024-02-23T07:44:10;98512.16;;;9.43;66.27
22753;BME280;11543;43.144;24.684;2024-02-23T07:46:36;98534.19;;;9.55;66.53
22753;BME280;11543;43.144;24.684;2024-02-23T07:49:02;98534.03;;;9.56;66.30
22753;BME280;11543;43.144;24.684;2024-02-23T07:51:28;98500.81;;;9.49;66.39
22753;BME280;11543;43.144;24.684;2024-02-23T07:53:53;98503.41;;;9.59;66.52
22753;BME280;11543;43.144;24.684;2024-02-23T07:56:19;98515.75;;;9.78;66.41
22753;BME280;11543;43.144;24.684;2024-02-23T07:58:45;98512.75;;;9.81;66.42
22753;BME280;11543;43.144;24.684;2024-02-23T08:01:10;98512.53;;;10.00;66.22
22753;BME280;11543;43.144;24.684;2024-02-23T08:03:36;98506.53;;;10.06;66.55
22753;BME280;11543;43.144;24.684;2024-02-23T08:06:01;98507.09;;;10.18;66.96
22753;BME280;11543;43.144;24.684;2024-02-23T08:08:27;98507.00;;;10.28;66.87
22753;BME280;11543;43.144;24.684;2024-02-23T08:10:53;98495.97;;;10.39;66.54
22753;BME280;11543;43.144;24.684;2024-02-23T08:13:18;98512.81;;;10.57;66.21
22753;BME280;11543;43.144;24.684;2024-02-23T08:15:44;98491.03;;;10.60;66.05
22753;BME280;11543;43.144;24.684;2024-02-23T08:18:10;98496.09;;;10.71;65.68
22753;BME280;11543;43.144;24.684;2024-02-23T08:20:36;98504.69;;;10.91;64.89
22753;BME280;11543;43.144;24.684;2024-02-23T08:23:01;98484.06;;;10.92;64.20
22753;BME280;11543;43.144;24.684;2024-02-23T08:25:27;98506.38;;;11.08;63.68
22753;BME280;11543;43.144;24.684;2024-02-23T08:27:56;98501.50;;;11.12;63.29
22753;BME280;11543;43.144;24.684;2024-02-23T08:30:22;98511.28;;;11.29;62.55
22753;BME280;11543;43.144;24.684;2024-02-23T08:32:49;98511.94;;;11.47;60.71
22753;BME280;11543;43.144;24.684;2024-02-23T08:35:14;98505.22;;;11.60;59.77
22753;BME280;11543;43.144;24.684;2024-02-23T08:37:40;98509.56;;;11.85;58.06
22753;BME280;11543;43.144;24.684;2024-02-23T08:40:08;98505.19;;;11.92;57.89
22753;BME280;11543;43.144;24.684;2024-02-23T08:42:33;98510.53;;;12.08;57.50
22753;BME280;11543;43.144;24.684;2024-02-23T08:44:59;98516.53;;;12.27;57.90
22753;BME280;11543;43.144;24.684;2024-02-23T08:47:24;98506.09;;;12.32;57.40
22753;BME280;11543;43.144;24.684;2024-02-23T08:49:53;98507.69;;;12.49;55.85
22753;BME280;11543;43.144;24.684;2024-02-23T08:52:18;98500.88;;;12.69;56.55
22753;BME280;11543;43.144;24.684;2024-02-23T08:54:44;98489.66;;;13.20;53.64
22753;BME280;11543;43.144;24.684;2024-02-23T08:57:10;98502.31;;;13.34;51.96
22753;BME280;11543;43.144;24.684;2024-02-23T08:59:35;98498.34;;;13.45;47.24
22753;BME280;11543;43.144;24.684;2024-02-23T09:02:01;98491.34;;;13.73;45.92
22753;BME280;11543;43.144;24.684;2024-02-23T09:04:26;98491.22;;;14.04;44.57
22753;BME280;11543;43.144;24.684;2024-02-23T09:06:52;98495.78;;;14.33;42.47
22753;BME280;11543;43.144;24.684;2024-02-23T09:09:18;98491.69;;;14.52;44.41
22753;BME280;11543;43.144;24.684;2024-02-23T09:11:43;98492.09;;;14.85;41.50
22753;BME280;11543;43.144;24.684;2024-02-23T09:14:09;98487.94;;;15.25;42.38
22753;BME280;11543;43.144;24.684;2024-02-23T09:16:34;98484.63;;;15.51;40.49
22753;BME280;11543;43.144;24.684;2024-02-23T09:19:00;98475.72;;;15.57;41.09
22753;BME280;11543;43.144;24.684;2024-02-23T09:21:25;98494.28;;;15.81;40.54
22753;BME280;11543;43.144;24.684;2024-02-23T09:23:51;98483.75;;;15.93;38.33
22753;BME280;11543;43.144;24.684;2024-02-23T09:26:16;98501.00;;;16.20;40.04
22753;BME280;11543;43.144;24.684;2024-02-23T09:28:43;98479.16;;;16.28;39.79
22753;BME280;11543;43.144;24.684;2024-02-23T09:31:10;98479.22;;;16.41;37.74
22753;BME280;11543;43.144;24.684;2024-02-23T09:33:36;98476.84;;;16.60;38.61
22753;BME280;11543;43.144;24.684;2024-02-23T09:36:02;98475.66;;;16.69;37.25
22753;BME280;11543;43.144;24.684;2024-02-23T09:38:27;98467.75;;;16.74;37.55
22753;BME280;11543;43.144;24.684;2024-02-23T09:40:53;98485.75;;;16.95;38.51
22753;BME280;11543;43.144;24.684;2024-02-23T09:43:21;98483.66;;;17.03;38.92
22753;BME280;11543;43.144;24.684;2024-02-23T09:45:50;98467.22;;;17.18;39.06
22753;BME280;11543;43.144;24.684;2024-02-23T09:48:18;98476.84;;;17.34;36.81
22753;BME280;11543;43.144;24.684;2024-02-23T09:50:45;98474.56;;;17.44;37.46
22753;BME280;11543;43.144;24.684;2024-02-23T09:53:13;98471.66;;;17.39;37.47
22753;BME280;11543;43.144;24.684;2024-02-23T09:55:39;98473.53;;;17.58;38.30
22753;BME280;11543;43.144;24.684;2024-02-23T09:58:06;98468.31;;;17.63;39.04
22753;BME280;11543;43.144;24.684;2024-02-23T10:00:34;98461.22;;;17.62;38.53
22753;BME280;11543;43.144;24.684;2024-02-23T10:03:02;98446.00;;;17.88;36.93
22753;BME280;11543;43.144;24.684;2024-02-23T10:05:30;98452.00;;;18.09;36.05
22753;BME280;11543;43.144;24.684;2024-02-23T10:07:59;98445.31;;;18.05;37.11
22753;BME280;11543;43.144;24.684;2024-02-23T10:10:34;98454.44;;;18.37;35.22
22753;BME280;11543;43.144;24.684;2024-02-23T10:13:00;98441.09;;;18.36;34.35
22753;BME280;11543;43.144;24.684;2024-02-23T10:15:28;98437.28;;;18.43;35.70
22753;BME280;11543;43.144;24.684;2024-02-23T10:17:54;98436.19;;;18.58;33.66
22753;BME280;11543;43.144;24.684;2024-02-23T10:20:20;98422.91;;;18.81;34.72
22753;BME280;11543;43.144;24.684;2024-02-23T10:22:45;98417.13;;;18.71;31.92
22753;BME280;11543;43.144;24.684;2024-02-23T10:25:11;98429.31;;;18.93;34.28
22753;BME280;11543;43.144;24.684;2024-02-23T10:27:37;98416.47;;;19.07;33.34
22753;BME280;11543;43.144;24.684;2024-02-23T10:30:02;98422.94;;;19.13;32.97
22753;BME280;11543;43.144;24.684;2024-02-23T10:32:29;98419.50;;;19.24;33.84
22753;BME280;11543;43.144;24.684;2024-02-23T10:35:00;98408.81;;;19.29;32.93
22753;BME280;11543;43.144;24.684;2024-02-23T10:37:29;98406.59;;;19.44;33.24
22753;BME280;11543;43.144;24.684;2024-02-23T10:39:57;98409.88;;;19.53;33.91
22753;BME280;11543;43.144;24.684;2024-02-23T10:42:24;98406.13;;;19.47;31.78
22753;BME280;11543;43.144;24.684;2024-02-23T10:44:50;98406.34;;;19.46;31.97
22753;BME280;11543;43.144;24.684;2024-02-23T10:47:16;98406.13;;;19.47;32.41
22753;BME280;11543;43.144;24.684;2024-02-23T10:49:44;98398.94;;;19.59;32.41
22753;BME280;11543;43.144;24.684;2024-02-23T10:52:11;98389.91;;;19.84;31.37
22753;BME280;11543;43.144;24.684;2024-02-23T10:54:39;98382.94;;;19.69;33.71
22753;BME280;11543;43.144;24.684;2024-02-23T10:57:06;98400.78;;;19.84;31.32
22753;BME280;11543;43.144;24.684;2024-02-23T10:59:32;98393.28;;;20.04;32.79
22753;BME280;11543;43.144;24.684;2024-02-23T11:01:59;98387.91;;;20.16;33.00
22753;BME280;11543;43.144;24.684;2024-02-23T11:04:26;98384.50;;;20.20;32.16
22753;BME280;11543;43.144;24.684;2024-02-23T11:06:54;98388.94;;;20.33;32.17
22753;BME280;11543;43.144;24.684;2024-02-23T11:09:24;98384.13;;;20.17;30.65
22753;BME280;11543;43.144;24.684;2024-02-23T11:11:56;98383.34;;;20.10;32.59
22753;BME280;11543;43.144;24.684;2024-02-23T11:14:34;98395.38;;;20.20;31.51
22753;BME280;11543;43.144;24.684;2024-02-23T11:17:01;98374.66;;;20.19;31.93
22753;BME280;11543;43.144;24.684;2024-02-23T11:19:37;98373.44;;;20.33;32.49
22753;BME280;11543;43.144;24.684;2024-02-23T11:22:03;98377.34;;;20.56;31.96
22753;BME280;11543;43.144;24.684;2024-02-23T11:24:30;98374.50;;;20.51;31.24
22753;BME280;11543;43.144;24.684;2024-02-23T11:26:59;98379.47;;;20.35;31.14
22753;BME280;11543;43.144;24.684;2024-02-23T11:29:31;98364.44;;;20.15;32.39
22753;BME280;11543;43.144;24.684;2024-02-23T11:31:58;98362.72;;;20.02;32.47
22753;BME280;11543;43.144;24.684;2024-02-23T11:34:27;98361.91;;;19.77;31.84
22753;BME280;11543;43.144;24.684;2024-02-23T11:36:53;98347.41;;;19.64;32.46
22753;BME280;11543;43.144;24.684;2024-02-23T11:39:19;98378.56;;;19.87;33.39
22753;BME280;11543;43.144;24.684;2024-02-23T11:41:48;98357.13;;;19.97;33.43
22753;BME280;11543;43.144;24.684;2024-02-23T11:44:14;98352.25;;;20.17;32.76
22753;BME280;11543;43.144;24.684;2024-02-23T11:46:40;98348.63;;;20.42;32.88
22753;BME280;11543;43.144;24.684;2024-02-23T11:49:06;98354.81;;;20.49;31.98
22753;BME280;11543;43.144;24.684;2024-02-23T11:51:31;98344.59;;;20.44;32.67
22753;BME280;11543;43.144;24.684;2024-02-23T11:53:57;98338.88;;;20.64;32.86
22753;BME280;11543;43.144;24.684;2024-02-23T11:56:23;98338.31;;;20.74;32.82
22753;BME280;11543;43.144;24.684;2024-02-23T11:58:49;98332.03;;;20.73;32.78
22753;BME280;11543;43.144;24.684;2024-02-23T12:01:14;98341.59;;;20.64;32.11
22753;BME280;11543;43.144;24.684;2024-02-23T12:03:40;98334.22;;;20.53;32.04
22753;BME280;11543;43.144;24.684;2024-02-23T12:06:07;98333.75;;;20.56;32.46
22753;BME280;11543;43.144;24.684;2024-02-23T12:08:33;98338.06;;;20.75;32.27
22753;BME280;11543;43.144;24.684;2024-02-23T12:11:07;98333.38;;;20.82;31.79
22753;BME280;11543;43.144;24.684;2024-02-23T12:13:34;98316.09;;;20.88;32.18
22753;BME280;11543;43.144;24.684;2024-02-23T12:16:02;98332.00;;;21.15;31.73
22753;BME280;11543;43.144;24.684;2024-02-23T12:18:27;98318.00;;;20.99;32.05
22753;BME280;11543;43.144;24.684;2024-02-23T12:21:05;98328.91;;;20.99;31.21
22753;BME280;11543;43.144;24.684;2024-02-23T12:23:45;98320.03;;;21.04;33.15
22753;BME280;11543;43.144;24.684;2024-02-23T12:26:13;98309.00;;;21.11;32.11
22753;BME280;11543;43.144;24.684;2024-02-23T12:28:39;98314.47;;;21.11;31.00
22753;BME280;11543;43.144;24.684;2024-02-23T12:31:05;98306.38;;;20.92;31.29
22753;BME280;11543;43.144;24.684;2024-02-23T12:33:35;98302.69;;;20.87;31.08
22753;BME280;11543;43.144;24.684;2024-02-23T12:36:02;98313.91;;;20.79;32.16
22753;BME280;11543;43.144;24.684;2024-02-23T12:38:28;98312.28;;;20.89;31.21
22753;BME280;11543;43.144;24.684;2024-02-23T12:40:54;98312.66;;;20.93;31.18
22753;BME280;11543;43.144;24.684;2024-02-23T12:43:20;98299.75;;;21.12;30.13
22753;BME280;11543;43.144;24.684;2024-02-23T12:45:57;98305.69;;;21.09;30.41
22753;BME280;11543;43.144;24.684;2024-02-23T12:48:22;98302.56;;;20.93;30.44
22753;BME280;11543;43.144;24.684;2024-02-23T12:50:49;98292.75;;;20.92;30.71